sensor_id;sensor_type;location;lat;lon;timestamp;pressure;altitude;pressure_sealevel;temperature;humidity
80500;BME280;69823;54.120;-4.710;2023-06-22T00:00:01;100188.66;;;29.41;22.88
80500;BME280;69823;54.120;-4.710;2023-06-22T00:02:27;100188.11;;;29.41;22.90
80500;BME280;69823;54.120;-4.710;2023-06-22T00:04:53;100187.06;;;29.40;22.90
80500;BME280;69823;54.120;-4.710;2023-06-22T00:07:18;100186.36;;;29.17;22.91
80500;BME280;69823;54.120;-4.710;2023-06-22T00:09:44;100190.15;;;29.19;22.90
80500;BME280;69823;54.120;-4.710;2023-06-22T00:12:10;100193.46;;;29.45;22.89
80500;BME280;69823;54.120;-4.710;2023-06-22T00:14:35;100192.08;;;29.47;22.91
80500;BME280;69823;54.120;-4.710;2023-06-22T00:17:01;100190.46;;;29.48;22.90
80500;BME280;69823;54.120;-4.710;2023-06-22T00:19:27;100193.03;;;29.23;22.91
80500;BME280;69823;54.120;-4.710;2023-06-22T00:21:52;100189.25;;;29.47;22.93
80500;BME280;69823;54.120;-4.710;2023-06-22T00:24:18;100188.27;;;29.47;22.94
80500;BME280;69823;54.120;-4.710;2023-06-22T00:26:44;100187.28;;;29.47;22.93
80500;BME280;69823;54.120;-4.710;2023-06-22T00:29:09;100185.20;;;29.47;22.94
80500;BME280;69823;54.120;-4.710;2023-06-22T00:31:35;100187.85;;;29.47;22.94
80500;BME280;69823;54.120;-4.710;2023-06-22T00:34:01;100191.03;;;29.47;22.94
80500;BME280;69823;54.120;-4.710;2023-06-22T00:36:26;100193.22;;;29.46;22.95
80500;BME280;69823;54.120;-4.710;2023-06-22T00:38:52;100195.15;;;29.47;22.95
80500;BME280;69823;54.120;-4.710;2023-06-22T00:41:18;100198.41;;;29.25;22.93
80500;BME280;69823;54.120;-4.710;2023-06-22T00:43:45;100203.94;;;29.48;22.95
80500;BME280;69823;54.120;-4.710;2023-06-22T00:46:09;100210.31;;;29.24;22.95
80500;BME280;69823;54.120;-4.710;2023-06-22T00:48:35;100214.65;;;29.50;22.95
80500;BME280;69823;54.120;-4.710;2023-06-22T00:51:02;100215.42;;;29.49;22.97
80500;BME280;69823;54.120;-4.710;2023-06-22T00:53:26;100216.37;;;29.49;22.97
80500;BME280;69823;54.120;-4.710;2023-06-22T00:55:52;100220.56;;;29.51;22.97
80500;BME280;69823;54.120;-4.710;2023-06-22T00:58:18;100222.83;;;29.50;22.98
80500;BME280;69823;54.120;-4.710;2023-06-22T01:00:43;100224.24;;;29.75;22.97
80500;BME280;69823;54.120;-4.710;2023-06-22T01:03:09;100225.34;;;29.51;22.97
80500;BME280;69823;54.120;-4.710;2023-06-22T01:05:35;100229.20;;;29.52;22.98
80500;BME280;69823;54.120;-4.710;2023-06-22T01:08:07;100231.91;;;29.50;22.98
80500;BME280;69823;54.120;-4.710;2023-06-22T01:10:31;100236.44;;;29.50;23.00
80500;BME280;69823;54.120;-4.710;2023-06-22T01:12:55;100237.11;;;29.49;23.00
80500;BME280;69823;54.120;-4.710;2023-06-22T01:15:22;100238.83;;;29.49;23.01
80500;BME280;69823;54.120;-4.710;2023-06-22T01:17:44;100242.45;;;29.49;23.01
80500;BME280;69823;54.120;-4.710;2023-06-22T01:20:09;100245.96;;;29.50;23.02
80500;BME280;69823;54.120;-4.710;2023-06-22T01:22:43;100247.41;;;29.49;23.02
80500;BME280;69823;54.120;-4.710;2023-06-22T01:25:07;100246.01;;;29.50;23.02
80500;BME280;69823;54.120;-4.710;2023-06-22T01:27:32;100244.25;;;29.49;23.03
80500;BME280;69823;54.120;-4.710;2023-06-22T01:29:54;100240.52;;;29.48;23.04
80500;BME280;69823;54.120;-4.710;2023-06-22T01:32:17;100242.36;;;29.49;23.04
80500;BME280;69823;54.120;-4.710;2023-06-22T01:34:43;100243.83;;;29.48;23.05
80500;BME280;69823;54.120;-4.710;2023-06-22T01:37:08;100247.17;;;29.48;23.05
80500;BME280;69823;54.120;-4.710;2023-06-22T01:39:34;100248.51;;;29.49;23.04
80500;BME280;69823;54.120;-4.710;2023-06-22T01:42:00;100248.36;;;29.73;23.04
80500;BME280;69823;54.120;-4.710;2023-06-22T01:44:26;100248.89;;;29.49;23.04
80500;BME280;69823;54.120;-4.710;2023-06-22T01:46:52;100251.19;;;29.49;23.05
80500;BME280;69823;54.120;-4.710;2023-06-22T01:49:17;100249.51;;;29.50;23.05
80500;BME280;69823;54.120;-4.710;2023-06-22T01:51:42;100248.97;;;29.48;23.06
80500;BME280;69823;54.120;-4.710;2023-06-22T01:54:08;100250.61;;;29.25;23.05
80500;BME280;69823;54.120;-4.710;2023-06-22T01:56:34;100256.47;;;29.47;23.06
80500;BME280;69823;54.120;-4.710;2023-06-22T01:59:04;100255.33;;;29.48;23.06
80500;BME280;69823;54.120;-4.710;2023-06-22T02:01:30;100255.73;;;29.48;23.06
80500;BME280;69823;54.120;-4.710;2023-06-22T02:03:55;100258.73;;;29.48;23.06
80500;BME280;69823;54.120;-4.710;2023-06-22T02:06:23;100258.62;;;29.47;23.08
80500;BME280;69823;54.120;-4.710;2023-06-22T02:08:48;100261.88;;;29.48;23.09
80500;BME280;69823;54.120;-4.710;2023-06-22T02:11:09;100265.00;;;29.47;23.09
80500;BME280;69823;54.120;-4.710;2023-06-22T02:13:33;100269.53;;;29.47;23.09
80500;BME280;69823;54.120;-4.710;2023-06-22T02:16:00;100273.56;;;29.44;23.07
80500;BME280;69823;54.120;-4.710;2023-06-22T02:18:25;100275.66;;;29.38;23.05
80500;BME280;69823;54.120;-4.710;2023-06-22T02:20:50;100276.89;;;29.33;23.03
80500;BME280;69823;54.120;-4.710;2023-06-22T02:23:16;100275.61;;;29.28;23.03
80500;BME280;69823;54.120;-4.710;2023-06-22T02:25:42;100278.82;;;29.23;23.05
80500;BME280;69823;54.120;-4.710;2023-06-22T02:28:07;100279.49;;;29.20;23.03
80500;BME280;69823;54.120;-4.710;2023-06-22T02:30:33;100280.80;;;29.18;23.01
80500;BME280;69823;54.120;-4.710;2023-06-22T02:32:59;100282.29;;;29.40;22.99
80500;BME280;69823;54.120;-4.710;2023-06-22T02:35:25;100286.88;;;29.13;22.95
80500;BME280;69823;54.120;-4.710;2023-06-22T02:37:50;100283.61;;;29.10;22.96
80500;BME280;69823;54.120;-4.710;2023-06-22T02:40:16;100282.33;;;29.07;22.95
80500;BME280;69823;54.120;-4.710;2023-06-22T02:42:41;100283.99;;;29.05;22.92
80500;BME280;69823;54.120;-4.710;2023-06-22T02:45:08;100285.10;;;29.24;22.95
80500;BME280;69823;54.120;-4.710;2023-06-22T02:47:33;100287.60;;;28.97;22.98
80500;BME280;69823;54.120;-4.710;2023-06-22T02:49:58;100287.57;;;28.97;22.95
80500;BME280;69823;54.120;-4.710;2023-06-22T02:52:24;100288.97;;;28.97;22.93
80500;BME280;69823;54.120;-4.710;2023-06-22T02:54:50;100287.13;;;28.97;22.86
80500;BME280;69823;54.120;-4.710;2023-06-22T02:57:15;100287.79;;;28.93;22.89
80500;BME280;69823;54.120;-4.710;2023-06-22T02:59:41;100289.96;;;28.90;22.93
80500;BME280;69823;54.120;-4.710;2023-06-22T03:02:07;100290.34;;;28.88;22.91
80500;BME280;69823;54.120;-4.710;2023-06-22T03:04:33;100291.64;;;28.87;22.86
80500;BME280;69823;54.120;-4.710;2023-06-22T03:06:58;100291.85;;;28.86;22.83
80500;BME280;69823;54.120;-4.710;2023-06-22T03:09:24;100294.96;;;28.87;22.85
80500;BME280;69823;54.120;-4.710;2023-06-22T03:11:49;100298.14;;;28.91;22.80
80500;BME280;69823;54.120;-4.710;2023-06-22T03:14:15;100296.46;;;28.87;22.85
80500;BME280;69823;54.120;-4.710;2023-06-22T03:16:41;100298.72;;;28.88;22.88
80500;BME280;69823;54.120;-4.710;2023-06-22T03:19:06;100301.50;;;28.86;22.86
80500;BME280;69823;54.120;-4.710;2023-06-22T03:21:32;100308.37;;;29.07;22.91
80500;BME280;69823;54.120;-4.710;2023-06-22T03:23:58;100309.36;;;29.30;22.93
80500;BME280;69823;54.120;-4.710;2023-06-22T03:26:23;100309.50;;;28.84;22.89
80500;BME280;69823;54.120;-4.710;2023-06-22T03:28:49;100306.94;;;28.82;22.91
80500;BME280;69823;54.120;-4.710;2023-06-22T03:31:15;100310.11;;;29.06;22.88
80500;BME280;69823;54.120;-4.710;2023-06-22T03:33:40;100309.85;;;29.05;22.86
80500;BME280;69823;54.120;-4.710;2023-06-22T03:36:06;100311.13;;;29.06;22.88
80500;BME280;69823;54.120;-4.710;2023-06-22T03:38:32;100313.70;;;28.79;22.84
80500;BME280;69823;54.120;-4.710;2023-06-22T03:40:57;100314.90;;;29.05;22.93
80500;BME280;69823;54.120;-4.710;2023-06-22T03:43:23;100314.99;;;28.82;22.93
80500;BME280;69823;54.120;-4.710;2023-06-22T03:45:49;100313.86;;;29.06;22.91
80500;BME280;69823;54.120;-4.710;2023-06-22T03:48:14;100314.49;;;28.80;22.89
80500;BME280;69823;54.120;-4.710;2023-06-22T03:50:40;100313.25;;;29.02;22.86
80500;BME280;69823;54.120;-4.710;2023-06-22T03:53:06;100315.54;;;28.77;22.87
80500;BME280;69823;54.120;-4.710;2023-06-22T03:55:33;100312.81;;;29.01;22.89
80500;BME280;69823;54.120;-4.710;2023-06-22T03:57:57;100313.76;;;28.77;22.88
80500;BME280;69823;54.120;-4.710;2023-06-22T04:00:23;100315.18;;;28.52;22.89
80500;BME280;69823;54.120;-4.710;2023-06-22T04:02:48;100316.79;;;28.99;22.87
80500;BME280;69823;54.120;-4.710;2023-06-22T04:05:14;100317.44;;;28.72;22.83
80500;BME280;69823;54.120;-4.710;2023-06-22T04:07:40;100317.30;;;28.73;22.80
80500;BME280;69823;54.120;-4.710;2023-06-22T04:10:06;100313.68;;;28.95;22.74
80500;BME280;69823;54.120;-4.710;2023-06-22T04:12:31;100310.48;;;28.95;22.77
80500;BME280;69823;54.120;-4.710;2023-06-22T04:14:57;100313.29;;;28.93;22.75
80500;BME280;69823;54.120;-4.710;2023-06-22T04:17:22;100318.62;;;28.68;22.74
80500;BME280;69823;54.120;-4.710;2023-06-22T04:19:48;100321.88;;;28.85;22.68
80500;BME280;69823;54.120;-4.710;2023-06-22T04:22:13;100325.92;;;28.63;22.69
80500;BME280;69823;54.120;-4.710;2023-06-22T04:24:39;100329.45;;;29.09;22.67
80500;BME280;69823;54.120;-4.710;2023-06-22T04:27:05;100331.19;;;28.89;22.67
80500;BME280;69823;54.120;-4.710;2023-06-22T04:29:30;100332.66;;;28.84;22.62
80500;BME280;69823;54.120;-4.710;2023-06-22T04:31:56;100337.26;;;28.84;22.61
80500;BME280;69823;54.120;-4.710;2023-06-22T04:34:22;100343.98;;;28.57;22.66
80500;BME280;69823;54.120;-4.710;2023-06-22T04:36:47;100346.90;;;28.83;22.75
80500;BME280;69823;54.120;-4.710;2023-06-22T04:39:15;100349.80;;;28.81;22.70
80500;BME280;69823;54.120;-4.710;2023-06-22T04:41:40;100349.40;;;28.50;22.63
80500;BME280;69823;54.120;-4.710;2023-06-22T04:44:04;100353.79;;;28.52;22.60
80500;BME280;69823;54.120;-4.710;2023-06-22T04:46:30;100356.26;;;28.71;22.53
80500;BME280;69823;54.120;-4.710;2023-06-22T04:48:56;100356.65;;;28.77;22.56
80500;BME280;69823;54.120;-4.710;2023-06-22T04:51:21;100358.45;;;29.03;22.60
80500;BME280;69823;54.120;-4.710;2023-06-22T04:53:47;100359.17;;;28.55;22.67
80500;BME280;69823;54.120;-4.710;2023-06-22T04:56:13;100362.90;;;28.74;22.62
80500;BME280;69823;54.120;-4.710;2023-06-22T04:58:39;100361.23;;;28.65;22.44
80500;BME280;69823;54.120;-4.710;2023-06-22T05:01:04;100365.22;;;28.82;22.17
80500;BME280;69823;54.120;-4.710;2023-06-22T05:03:30;100367.23;;;28.41;21.95
80500;BME280;69823;54.120;-4.710;2023-06-22T05:05:56;100367.01;;;28.27;21.91
80500;BME280;69823;54.120;-4.710;2023-06-22T05:08:21;100363.77;;;28.24;22.02
80500;BME280;69823;54.120;-4.710;2023-06-22T05:10:47;100360.46;;;28.31;22.10
80500;BME280;69823;54.120;-4.710;2023-06-22T05:13:13;100358.40;;;28.61;22.16
80500;BME280;69823;54.120;-4.710;2023-06-22T05:15:38;100354.76;;;28.43;22.20
80500;BME280;69823;54.120;-4.710;2023-06-22T05:18:04;100355.41;;;28.45;22.20
80500;BME280;69823;54.120;-4.710;2023-06-22T05:20:30;100355.62;;;28.72;22.27
80500;BME280;69823;54.120;-4.710;2023-06-22T05:22:55;100355.10;;;28.53;22.28
80500;BME280;69823;54.120;-4.710;2023-06-22T05:25:21;100354.61;;;28.54;22.34
80500;BME280;69823;54.120;-4.710;2023-06-22T05:27:47;100354.98;;;28.60;22.35
80500;BME280;69823;54.120;-4.710;2023-06-22T05:30:13;100357.16;;;28.37;22.43
80500;BME280;69823;54.120;-4.710;2023-06-22T05:32:38;100359.26;;;28.87;22.41
80500;BME280;69823;54.120;-4.710;2023-06-22T05:35:04;100360.93;;;28.40;22.35
80500;BME280;69823;54.120;-4.710;2023-06-22T05:37:29;100363.18;;;28.63;22.34
80500;BME280;69823;54.120;-4.710;2023-06-22T05:39:55;100363.86;;;28.42;22.40
80500;BME280;69823;54.120;-4.710;2023-06-22T05:42:21;100367.14;;;28.50;22.52
80500;BME280;69823;54.120;-4.710;2023-06-22T05:44:47;100362.87;;;29.01;22.61
80500;BME280;69823;54.120;-4.710;2023-06-22T05:47:12;100365.66;;;28.78;22.70
80500;BME280;69823;54.120;-4.710;2023-06-22T05:49:38;100367.87;;;28.81;22.76
80500;BME280;69823;54.120;-4.710;2023-06-22T05:52:04;100367.06;;;28.83;22.82
80500;BME280;69823;54.120;-4.710;2023-06-22T05:54:30;100367.31;;;28.83;22.89
80500;BME280;69823;54.120;-4.710;2023-06-22T05:56:55;100365.07;;;28.60;22.92
80500;BME280;69823;54.120;-4.710;2023-06-22T05:59:21;100365.99;;;28.60;22.92
80500;BME280;69823;54.120;-4.710;2023-06-22T06:01:46;100372.06;;;28.86;22.90
80500;BME280;69823;54.120;-4.710;2023-06-22T06:04:12;100375.14;;;28.65;22.90
80500;BME280;69823;54.120;-4.710;2023-06-22T06:06:38;100373.99;;;28.91;22.91
80500;BME280;69823;54.120;-4.710;2023-06-22T06:09:03;100374.38;;;28.69;22.96
80500;BME280;69823;54.120;-4.710;2023-06-22T06:11:29;100374.97;;;28.94;23.03
80500;BME280;69823;54.120;-4.710;2023-06-22T06:13:55;100373.90;;;28.70;23.04
80500;BME280;69823;54.120;-4.710;2023-06-22T06:16:21;100371.10;;;28.70;23.08
80500;BME280;69823;54.120;-4.710;2023-06-22T06:18:46;100373.07;;;29.18;23.11
80500;BME280;69823;54.120;-4.710;2023-06-22T06:21:12;100372.39;;;28.70;23.09
80500;BME280;69823;54.120;-4.710;2023-06-22T06:23:37;100369.54;;;28.72;23.08
80500;BME280;69823;54.120;-4.710;2023-06-22T06:26:03;100371.06;;;28.75;23.06
80500;BME280;69823;54.120;-4.710;2023-06-22T06:28:29;100365.62;;;28.77;23.07
80500;BME280;69823;54.120;-4.710;2023-06-22T06:30:54;100362.08;;;29.02;23.07
80500;BME280;69823;54.120;-4.710;2023-06-22T06:33:20;100362.39;;;29.04;23.11
80500;BME280;69823;54.120;-4.710;2023-06-22T06:35:46;100365.91;;;28.79;23.13
80500;BME280;69823;54.120;-4.710;2023-06-22T06:38:11;100364.69;;;29.05;23.15
80500;BME280;69823;54.120;-4.710;2023-06-22T06:40:37;100368.01;;;29.06;23.18
80500;BME280;69823;54.120;-4.710;2023-06-22T06:43:03;100368.42;;;29.07;23.19
80500;BME280;69823;54.120;-4.710;2023-06-22T06:45:29;100371.33;;;28.84;23.20
80500;BME280;69823;54.120;-4.710;2023-06-22T06:47:54;100372.27;;;28.83;23.21
80500;BME280;69823;54.120;-4.710;2023-06-22T06:50:20;100372.47;;;28.83;23.22
80500;BME280;69823;54.120;-4.710;2023-06-22T06:52:46;100368.76;;;29.09;23.19
80500;BME280;69823;54.120;-4.710;2023-06-22T06:55:11;100370.43;;;28.83;23.22
80500;BME280;69823;54.120;-4.710;2023-06-22T06:57:37;100373.14;;;28.85;23.23
80500;BME280;69823;54.120;-4.710;2023-06-22T07:00:04;100371.97;;;29.09;23.25
80500;BME280;69823;54.120;-4.710;2023-06-22T07:02:28;100374.47;;;29.33;23.27
80500;BME280;69823;54.120;-4.710;2023-06-22T07:04:54;100378.58;;;29.13;23.26
80500;BME280;69823;54.120;-4.710;2023-06-22T07:07:20;100382.62;;;28.91;23.26
80500;BME280;69823;54.120;-4.710;2023-06-22T07:09:45;100382.62;;;29.15;23.27
80500;BME280;69823;54.120;-4.710;2023-06-22T07:12:11;100383.46;;;28.89;23.29
80500;BME280;69823;54.120;-4.710;2023-06-22T07:14:37;100385.84;;;29.36;23.31
80500;BME280;69823;54.120;-4.710;2023-06-22T07:17:03;100385.88;;;28.87;23.33
80500;BME280;69823;54.120;-4.710;2023-06-22T07:19:28;100388.09;;;28.90;23.34
80500;BME280;69823;54.120;-4.710;2023-06-22T07:21:54;100390.19;;;29.14;23.34
80500;BME280;69823;54.120;-4.710;2023-06-22T07:24:20;100387.80;;;29.37;23.38
80500;BME280;69823;54.120;-4.710;2023-06-22T07:26:45;100391.42;;;28.88;23.41
80500;BME280;69823;54.120;-4.710;2023-06-22T07:29:11;100395.16;;;28.90;23.42
80500;BME280;69823;54.120;-4.710;2023-06-22T07:31:36;100393.37;;;28.91;23.42
80500;BME280;69823;54.120;-4.710;2023-06-22T07:34:02;100394.67;;;29.15;23.42
80500;BME280;69823;54.120;-4.710;2023-06-22T07:36:28;100397.20;;;29.15;23.43
80500;BME280;69823;54.120;-4.710;2023-06-22T07:38:53;100400.61;;;28.90;23.47
80500;BME280;69823;54.120;-4.710;2023-06-22T07:41:19;100401.65;;;29.13;23.47
80500;BME280;69823;54.120;-4.710;2023-06-22T07:43:45;100403.98;;;29.12;23.52
80500;BME280;69823;54.120;-4.710;2023-06-22T07:46:11;100404.28;;;29.11;23.51
80500;BME280;69823;54.120;-4.710;2023-06-22T07:48:36;100400.98;;;28.87;23.50
80500;BME280;69823;54.120;-4.710;2023-06-22T07:51:02;100401.52;;;28.91;23.46
80500;BME280;69823;54.120;-4.710;2023-06-22T07:53:28;100399.79;;;29.14;23.52
80500;BME280;69823;54.120;-4.710;2023-06-22T07:55:53;100399.43;;;28.85;23.59
80500;BME280;69823;54.120;-4.710;2023-06-22T07:58:19;100397.45;;;29.35;23.57
80500;BME280;69823;54.120;-4.710;2023-06-22T08:00:45;100397.56;;;28.87;23.55
80500;BME280;69823;54.120;-4.710;2023-06-22T08:03:10;100400.01;;;28.93;23.51
80500;BME280;69823;54.120;-4.710;2023-06-22T08:05:36;100400.79;;;29.17;23.55
80500;BME280;69823;54.120;-4.710;2023-06-22T08:08:02;100404.47;;;28.87;23.69
80500;BME280;69823;54.120;-4.710;2023-06-22T08:10:27;100408.32;;;29.30;23.74
80500;BME280;69823;54.120;-4.710;2023-06-22T08:12:53;100407.20;;;29.30;23.75
80500;BME280;69823;54.120;-4.710;2023-06-22T08:15:19;100409.01;;;28.78;23.80
80500;BME280;69823;54.120;-4.710;2023-06-22T08:17:45;100407.66;;;29.02;23.83
80500;BME280;69823;54.120;-4.710;2023-06-22T08:20:11;100411.90;;;28.96;23.86
80500;BME280;69823;54.120;-4.710;2023-06-22T08:22:36;100408.41;;;29.04;23.79
80500;BME280;69823;54.120;-4.710;2023-06-22T08:25:02;100411.48;;;28.90;23.70
80500;BME280;69823;54.120;-4.710;2023-06-22T08:27:27;100413.05;;;29.19;23.66
80500;BME280;69823;54.120;-4.710;2023-06-22T08:29:53;100418.46;;;29.25;23.62
80500;BME280;69823;54.120;-4.710;2023-06-22T08:32:19;100419.85;;;29.29;23.57
80500;BME280;69823;54.120;-4.710;2023-06-22T08:34:44;100424.87;;;29.06;23.57
80500;BME280;69823;54.120;-4.710;2023-06-22T08:37:10;100428.76;;;29.10;23.55
80500;BME280;69823;54.120;-4.710;2023-06-22T08:39:36;100429.79;;;29.13;23.52
80500;BME280;69823;54.120;-4.710;2023-06-22T08:42:01;100430.40;;;29.15;23.54
80500;BME280;69823;54.120;-4.710;2023-06-22T08:44:27;100430.22;;;29.41;23.53
80500;BME280;69823;54.120;-4.710;2023-06-22T08:46:53;100429.81;;;29.40;23.52
80500;BME280;69823;54.120;-4.710;2023-06-22T08:49:18;100432.59;;;29.16;23.53
80500;BME280;69823;54.120;-4.710;2023-06-22T08:51:44;100431.27;;;29.41;23.53
80500;BME280;69823;54.120;-4.710;2023-06-22T08:54:10;100433.79;;;29.07;23.65
80500;BME280;69823;54.120;-4.710;2023-06-22T08:56:35;100434.41;;;29.08;23.63
80500;BME280;69823;54.120;-4.710;2023-06-22T08:59:01;100439.65;;;29.12;23.58
80500;BME280;69823;54.120;-4.710;2023-06-22T09:01:27;100443.69;;;29.16;23.55
80500;BME280;69823;54.120;-4.710;2023-06-22T09:03:52;100445.45;;;29.18;23.53
80500;BME280;69823;54.120;-4.710;2023-06-22T09:06:18;100442.97;;;29.19;23.53
80500;BME280;69823;54.120;-4.710;2023-06-22T09:08:44;100450.17;;;28.92;23.55
80500;BME280;69823;54.120;-4.710;2023-06-22T09:11:09;100454.67;;;29.40;23.55
80500;BME280;69823;54.120;-4.710;2023-06-22T09:13:35;100452.46;;;29.19;23.50
80500;BME280;69823;54.120;-4.710;2023-06-22T09:16:01;100453.02;;;29.10;23.59
80500;BME280;69823;54.120;-4.710;2023-06-22T09:18:26;100452.99;;;28.95;23.74
80500;BME280;69823;54.120;-4.710;2023-06-22T09:20:52;100451.58;;;28.84;23.93
80500;BME280;69823;54.120;-4.710;2023-06-22T09:23:18;100447.49;;;29.00;24.15
80500;BME280;69823;54.120;-4.710;2023-06-22T09:25:43;100452.45;;;28.70;24.48
80500;BME280;69823;54.120;-4.710;2023-06-22T09:28:08;100453.59;;;28.64;24.79
80500;BME280;69823;54.120;-4.710;2023-06-22T09:30:34;100457.42;;;28.59;24.81
80500;BME280;69823;54.120;-4.710;2023-06-22T09:32:59;100456.70;;;28.80;24.80
80500;BME280;69823;54.120;-4.710;2023-06-22T09:35:24;100461.23;;;28.77;24.77
80500;BME280;69823;54.120;-4.710;2023-06-22T09:37:49;100464.26;;;28.68;24.77
80500;BME280;69823;54.120;-4.710;2023-06-22T09:40:15;100463.37;;;28.72;24.66
80500;BME280;69823;54.120;-4.710;2023-06-22T09:42:41;100463.87;;;28.33;24.73
80500;BME280;69823;54.120;-4.710;2023-06-22T09:45:08;100462.21;;;28.11;24.81
80500;BME280;69823;54.120;-4.710;2023-06-22T09:47:32;100461.70;;;28.16;24.86
80500;BME280;69823;54.120;-4.710;2023-06-22T09:49:58;100464.06;;;27.82;24.92
80500;BME280;69823;54.120;-4.710;2023-06-22T09:52:24;100466.18;;;28.14;25.06
80500;BME280;69823;54.120;-4.710;2023-06-22T09:54:49;100465.60;;;27.85;25.05
80500;BME280;69823;54.120;-4.710;2023-06-22T09:57:15;100466.49;;;27.97;25.13
80500;BME280;69823;54.120;-4.710;2023-06-22T09:59:41;100465.30;;;27.67;25.06
80500;BME280;69823;54.120;-4.710;2023-06-22T10:02:06;100465.09;;;27.62;24.97
80500;BME280;69823;54.120;-4.710;2023-06-22T10:04:31;100467.55;;;27.60;24.79
80500;BME280;69823;54.120;-4.710;2023-06-22T10:06:57;100469.03;;;27.77;24.77
80500;BME280;69823;54.120;-4.710;2023-06-22T10:09:23;100471.74;;;27.82;24.84
80500;BME280;69823;54.120;-4.710;2023-06-22T10:11:48;100477.69;;;27.83;24.76
80500;BME280;69823;54.120;-4.710;2023-06-22T10:14:14;100477.95;;;27.97;24.75
80500;BME280;69823;54.120;-4.710;2023-06-22T10:16:40;100476.19;;;27.79;24.55
80500;BME280;69823;54.120;-4.710;2023-06-22T10:19:05;100477.51;;;27.72;24.35
80500;BME280;69823;54.120;-4.710;2023-06-22T10:21:31;100473.35;;;27.60;24.40
80500;BME280;69823;54.120;-4.710;2023-06-22T10:23:57;100471.75;;;27.19;24.30
80500;BME280;69823;54.120;-4.710;2023-06-22T10:26:23;100468.04;;;27.38;24.54
80500;BME280;69823;54.120;-4.710;2023-06-22T10:28:48;100472.32;;;27.49;24.32
80500;BME280;69823;54.120;-4.710;2023-06-22T10:31:14;100476.99;;;27.90;24.20
80500;BME280;69823;54.120;-4.710;2023-06-22T10:33:40;100478.95;;;28.53;23.94
80500;BME280;69823;54.120;-4.710;2023-06-22T10:36:05;100479.73;;;28.62;23.80
80500;BME280;69823;54.120;-4.710;2023-06-22T10:38:31;100474.20;;;28.45;23.53
80500;BME280;69823;54.120;-4.710;2023-06-22T10:40:57;100473.20;;;28.53;23.56
80500;BME280;69823;54.120;-4.710;2023-06-22T10:43:22;100477.87;;;28.85;23.49
80500;BME280;69823;54.120;-4.710;2023-06-22T10:45:48;100479.33;;;28.47;23.43
80500;BME280;69823;54.120;-4.710;2023-06-22T10:48:14;100478.84;;;28.80;23.39
80500;BME280;69823;54.120;-4.710;2023-06-22T10:50:39;100478.59;;;28.65;23.39
80500;BME280;69823;54.120;-4.710;2023-06-22T10:53:05;100476.34;;;28.74;23.33
80500;BME280;69823;54.120;-4.710;2023-06-22T10:55:31;100473.16;;;28.83;23.31
80500;BME280;69823;54.120;-4.710;2023-06-22T10:57:57;100474.57;;;29.09;23.30
80500;BME280;69823;54.120;-4.710;2023-06-22T11:00:22;100480.48;;;28.83;23.35
80500;BME280;69823;54.120;-4.710;2023-06-22T11:02:48;100479.62;;;28.88;23.36
80500;BME280;69823;54.120;-4.710;2023-06-22T11:05:14;100482.63;;;28.80;23.47
80500;BME280;69823;54.120;-4.710;2023-06-22T11:07:42;100481.45;;;29.10;23.50
80500;BME280;69823;54.120;-4.710;2023-06-22T11:10:05;100480.86;;;29.11;23.54
80500;BME280;69823;54.120;-4.710;2023-06-22T11:12:30;100483.32;;;29.12;23.60
80500;BME280;69823;54.120;-4.710;2023-06-22T11:14:56;100485.88;;;28.85;23.65
80500;BME280;69823;54.120;-4.710;2023-06-22T11:17:22;100487.15;;;29.20;23.62
80500;BME280;69823;54.120;-4.710;2023-06-22T11:19:47;100489.77;;;29.07;23.54
80500;BME280;69823;54.120;-4.710;2023-06-22T11:22:13;100488.64;;;29.37;23.51
80500;BME280;69823;54.120;-4.710;2023-06-22T11:24:38;100487.87;;;29.46;23.50
80500;BME280;69823;54.120;-4.710;2023-06-22T11:27:04;100492.90;;;29.34;23.43
80500;BME280;69823;54.120;-4.710;2023-06-22T11:29:29;100492.58;;;29.37;23.44
80500;BME280;69823;54.120;-4.710;2023-06-22T11:31:54;100489.29;;;29.45;23.37
80500;BME280;69823;54.120;-4.710;2023-06-22T11:34:20;100492.80;;;29.44;23.37
80500;BME280;69823;54.120;-4.710;2023-06-22T11:36:45;100491.50;;;29.34;23.50
80500;BME280;69823;54.120;-4.710;2023-06-22T11:39:10;100489.41;;;29.33;23.52
80500;BME280;69823;54.120;-4.710;2023-06-22T11:41:36;100486.80;;;29.34;23.57
80500;BME280;69823;54.120;-4.710;2023-06-22T11:44:02;100486.89;;;29.38;23.53
80500;BME280;69823;54.120;-4.710;2023-06-22T11:46:27;100486.52;;;29.27;23.49
80500;BME280;69823;54.120;-4.710;2023-06-22T11:48:52;100485.60;;;29.33;23.39
80500;BME280;69823;54.120;-4.710;2023-06-22T11:51:18;100485.77;;;29.48;23.49
80500;BME280;69823;54.120;-4.710;2023-06-22T11:53:44;100491.36;;;29.29;23.45
80500;BME280;69823;54.120;-4.710;2023-06-22T11:56:09;100487.90;;;29.10;23.88
80500;BME280;69823;54.120;-4.710;2023-06-22T11:58:35;100486.22;;;28.93;24.07
80500;BME280;69823;54.120;-4.710;2023-06-22T12:01:00;100489.60;;;28.89;24.06
80500;BME280;69823;54.120;-4.710;2023-06-22T12:03:26;100490.94;;;28.95;23.98
80500;BME280;69823;54.120;-4.710;2023-06-22T12:05:51;100493.56;;;28.97;23.98
80500;BME280;69823;54.120;-4.710;2023-06-22T12:08:17;100492.41;;;29.25;23.78
80500;BME280;69823;54.120;-4.710;2023-06-22T12:10:42;100491.21;;;29.40;23.59
80500;BME280;69823;54.120;-4.710;2023-06-22T12:13:08;100493.07;;;29.41;23.55
80500;BME280;69823;54.120;-4.710;2023-06-22T12:15:33;100491.20;;;29.41;23.47
80500;BME280;69823;54.120;-4.710;2023-06-22T12:17:59;100489.29;;;29.43;23.53
80500;BME280;69823;54.120;-4.710;2023-06-22T12:20:24;100487.22;;;29.51;23.45
80500;BME280;69823;54.120;-4.710;2023-06-22T12:22:50;100485.19;;;29.59;23.38
80500;BME280;69823;54.120;-4.710;2023-06-22T12:25:15;100488.91;;;29.58;23.38
80500;BME280;69823;54.120;-4.710;2023-06-22T12:27:41;100488.99;;;29.34;23.35
80500;BME280;69823;54.120;-4.710;2023-06-22T12:30:08;100489.99;;;29.59;23.34